createdAt,value
2023-01-24T00:02:44.997Z,22.22
2023-01-24T00:05:33.854Z,22.22
2023-01-24T00:08:25.951Z,22.21
2023-01-24T00:11:13.107Z,22.21
2023-01-24T00:13:58.953Z,22.23
2023-01-24T00:16:45.081Z,22.23
2023-01-24T00:19:31.371Z,22.20
2023-01-24T00:22:17.691Z,22.30
2023-01-24T00:25:04.235Z,22.33
2023-01-24T00:27:50.233Z,22.32
2023-01-24T00:30:36.427Z,22.31
2023-01-24T00:33:22.741Z,22.32
2023-01-24T00:36:09.461Z,22.30
2023-01-24T00:38:55.936Z,22.29
2023-01-24T00:41:42.041Z,22.28
2023-01-24T00:44:28.046Z,22.23
2023-01-24T00:47:14.432Z,22.29
2023-01-24T00:50:00.261Z,22.20
2023-01-24T00:52:46.405Z,22.19
2023-01-24T00:55:32.746Z,22.21
2023-01-24T00:58:19.003Z,22.22
2023-01-24T01:01:05.424Z,22.22
2023-01-24T01:03:51.433Z,22.24
2023-01-24T01:06:37.277Z,22.22
2023-01-24T01:09:23.582Z,22.23
2023-01-24T01:12:09.207Z,22.20
2023-01-24T01:14:55.398Z,22.17
2023-01-24T01:17:41.247Z,22.22
2023-01-24T01:20:27.976Z,22.22
2023-01-24T01:23:14.364Z,22.19
2023-01-24T01:26:01.432Z,22.08
2023-01-24T01:28:47.291Z,22.06
2023-01-24T01:31:33.751Z,22.11
2023-01-24T01:34:19.676Z,22.18
2023-01-24T01:37:05.578Z,22.15
2023-01-24T01:39:51.991Z,22.16
2023-01-24T01:42:50.169Z,22.21
2023-01-24T01:45:37.749Z,22.21
2023-01-24T01:48:26.088Z,22.21
2023-01-24T01:51:12.183Z,22.16
2023-01-24T01:53:59.756Z,22.10
2023-01-24T01:56:50.101Z,21.93
2023-01-24T01:59:37.244Z,22.17
2023-01-24T02:02:23.612Z,22.20
2023-01-24T02:05:09.916Z,22.15
2023-01-24T02:08:00.465Z,22.16
2023-01-24T02:11:05.473Z,22.18
2023-01-24T02:14:11.519Z,22.08
2023-01-24T02:16:57.807Z,21.96
2023-01-24T02:19:50.047Z,21.96
2023-01-24T02:22:36.239Z,21.97
2023-01-24T02:25:23.763Z,22.02
2023-01-24T02:28:09.551Z,22.10
2023-01-24T02:30:59.058Z,22.12
2023-01-24T02:33:45.322Z,22.06
2023-01-24T02:36:35.779Z,22.10
2023-01-24T02:39:24.267Z,22.08
2023-01-24T02:42:12.031Z,22.03
2023-01-24T02:44:58.406Z,22.08
2023-01-24T02:47:45.216Z,22.14
2023-01-24T02:50:51.444Z,22.28
2023-01-24T02:53:37.378Z,22.22
2023-01-24T02:56:42.307Z,22.24
2023-01-24T02:59:28.398Z,22.25
2023-01-24T03:02:14.754Z,22.24
2023-01-24T03:05:00.782Z,22.26
2023-01-24T03:07:46.985Z,22.22
2023-01-24T03:10:33.182Z,22.23
2023-01-24T03:13:38.229Z,22.24
2023-01-24T03:16:43.125Z,22.24
2023-01-24T03:19:47.931Z,22.11
2023-01-24T03:22:52.783Z,21.83
2023-01-24T03:25:57.764Z,21.66
2023-01-24T03:29:02.705Z,21.76
2023-01-24T03:32:07.803Z,21.70
2023-01-24T03:34:53.979Z,21.88
2023-01-24T03:37:58.559Z,21.99
2023-01-24T03:40:44.854Z,22.06
2023-01-24T03:43:30.926Z,22.19
2023-01-24T03:46:17.192Z,22.26
2023-01-24T03:49:03.406Z,22.29
2023-01-24T03:52:08.156Z,22.33
2023-01-24T03:54:54.055Z,22.31
2023-01-24T03:57:39.978Z,22.33
2023-01-24T04:00:26.270Z,22.25
2023-01-24T04:03:12.466Z,22.00
2023-01-24T04:05:58.730Z,21.78
2023-01-24T04:08:45.043Z,21.92
2023-01-24T04:11:31.017Z,21.99
2023-01-24T04:14:17.158Z,22.04
2023-01-24T04:17:03.522Z,22.06
2023-01-24T04:19:49.505Z,22.09
2023-01-24T04:22:35.554Z,22.12
2023-01-24T04:25:22.035Z,22.17
2023-01-24T04:28:08.458Z,22.18
2023-01-24T04:31:01.141Z,22.21
2023-01-24T04:33:47.181Z,22.26
2023-01-24T04:36:33.491Z,22.33
2023-01-24T04:39:19.464Z,22.26
2023-01-24T04:42:06.648Z,22.45
2023-01-24T04:44:52.849Z,22.23
2023-01-24T04:47:39.090Z,22.05
2023-01-24T04:50:24.947Z,22.04
2023-01-24T04:53:11.117Z,22.07
2023-01-24T04:56:00.798Z,22.33
2023-01-24T04:58:47.045Z,22.38
2023-01-24T05:01:33.363Z,22.29
2023-01-24T05:04:19.337Z,22.20
2023-01-24T05:07:05.192Z,22.14
2023-01-24T05:09:51.408Z,22.11
2023-01-24T05:12:37.602Z,22.08
2023-01-24T05:15:24.471Z,22.08
2023-01-24T05:18:10.343Z,22.05
2023-01-24T05:20:56.226Z,21.98
2023-01-24T05:23:42.464Z,21.80
2023-01-24T05:26:28.270Z,21.77
2023-01-24T05:29:14.725Z,21.67
2023-01-24T05:32:00.645Z,21.60
2023-01-24T05:34:46.526Z,21.72
2023-01-24T05:37:33.121Z,21.86
2023-01-24T05:40:19.102Z,21.88
2023-01-24T05:43:06.299Z,21.92
2023-01-24T05:45:52.724Z,22.03
2023-01-24T05:48:38.814Z,22.11
2023-01-24T05:51:25.134Z,22.31
2023-01-24T05:54:11.041Z,22.23
2023-01-24T05:56:57.305Z,22.09
2023-01-24T05:59:43.808Z,22.00
2023-01-24T06:02:29.804Z,21.97
2023-01-24T06:05:16.199Z,22.07
2023-01-24T06:08:02.249Z,22.12
2023-01-24T06:10:48.495Z,22.09
2023-01-24T06:13:34.577Z,22.10
2023-01-24T06:16:21.081Z,22.14
2023-01-24T06:19:07.295Z,22.19
2023-01-24T06:21:59.665Z,22.19
2023-01-24T06:24:45.813Z,22.17
2023-01-24T06:27:31.905Z,22.17
2023-01-24T06:30:18.330Z,22.08
2023-01-24T06:33:04.523Z,22.12
2023-01-24T06:36:09.329Z,22.12
2023-01-24T06:38:55.880Z,22.13
2023-01-24T06:41:42.341Z,22.13
2023-01-24T06:44:28.855Z,22.23
2023-01-24T06:47:14.931Z,22.14
2023-01-24T06:50:00.921Z,22.05
2023-01-24T06:52:47.541Z,22.03
2023-01-24T06:55:33.452Z,22.04
2023-01-24T06:58:19.581Z,22.04
2023-01-24T07:01:05.819Z,22.06
2023-01-24T07:03:52.222Z,22.07
2023-01-24T07:06:38.567Z,22.08
2023-01-24T07:09:24.612Z,22.02
2023-01-24T07:12:10.692Z,21.91
2023-01-24T07:14:56.537Z,21.85
2023-01-24T07:17:42.943Z,21.76
2023-01-24T07:20:29.128Z,21.80
2023-01-24T07:23:35.654Z,22.00
2023-01-24T07:26:22.051Z,21.95
2023-01-24T07:29:07.977Z,22.00
2023-01-24T07:31:54.567Z,22.10
2023-01-24T07:34:40.794Z,22.35
2023-01-24T07:37:26.833Z,22.37
2023-01-24T07:40:13.080Z,22.33
2023-01-24T07:43:02.341Z,22.35
2023-01-24T07:45:49.169Z,22.35
2023-01-24T07:48:36.728Z,22.34
2023-01-24T07:51:22.724Z,22.36
2023-01-24T07:54:10.355Z,22.35
2023-01-24T07:56:56.575Z,22.34
2023-01-24T07:59:42.539Z,22.28
2023-01-24T08:02:28.524Z,22.36
2023-01-24T08:05:14.991Z,22.17
2023-01-24T08:08:01.023Z,22.06
2023-01-24T08:10:47.281Z,22.05
2023-01-24T08:13:33.665Z,22.01
2023-01-24T08:16:24.708Z,21.99
2023-01-24T08:19:11.164Z,22.08
2023-01-24T08:21:57.061Z,22.31
2023-01-24T08:24:43.569Z,22.30
2023-01-24T08:27:29.742Z,22.24
2023-01-24T08:30:16.991Z,22.28
2023-01-24T08:33:03.365Z,22.41
2023-01-24T08:35:49.478Z,22.48
2023-01-24T08:38:35.688Z,22.35
2023-01-24T08:41:21.520Z,22.24
2023-01-24T08:44:08.342Z,22.22
2023-01-24T08:46:54.614Z,22.17
2023-01-24T08:49:40.677Z,22.10
2023-01-24T08:52:26.725Z,22.05
2023-01-24T08:55:13.307Z,22.09
2023-01-24T08:58:00.052Z,22.16
2023-01-24T09:00:46.011Z,22.22
2023-01-24T09:03:32.336Z,22.29
2023-01-24T09:06:18.666Z,22.42
2023-01-24T09:09:05.112Z,22.35
2023-01-24T09:11:51.152Z,22.27
2023-01-24T09:14:37.194Z,22.26
2023-01-24T09:17:23.599Z,22.32
2023-01-24T09:20:09.992Z,22.31
2023-01-24T09:22:56.224Z,22.33
2023-01-24T09:25:42.709Z,22.27
2023-01-24T09:28:28.603Z,22.21
2023-01-24T09:31:14.869Z,22.26
2023-01-24T09:34:00.979Z,22.22
2023-01-24T09:36:48.503Z,22.18
2023-01-24T09:39:34.693Z,22.11
2023-01-24T09:42:29.855Z,22.07
2023-01-24T09:45:21.693Z,22.07
2023-01-24T09:48:12.337Z,22.04
2023-01-24T09:51:01.788Z,22.05
2023-01-24T09:53:50.765Z,22.06
2023-01-24T09:56:37.673Z,22.10
2023-01-24T09:59:43.310Z,22.15
2023-01-24T10:02:29.675Z,22.18
2023-01-24T10:05:16.045Z,22.20
2023-01-24T10:08:08.213Z,22.19
2023-01-24T10:11:08.300Z,22.15
2023-01-24T10:14:14.127Z,21.92
2023-01-24T10:17:09.590Z,21.78
2023-01-24T10:19:58.496Z,21.94
2023-01-24T10:22:44.910Z,21.99
2023-01-24T10:25:46.405Z,22.08
2023-01-24T10:28:36.462Z,22.22
2023-01-24T10:31:22.853Z,22.30
2023-01-24T10:34:13.793Z,22.24
2023-01-24T10:37:01.377Z,22.12
2023-01-24T10:39:47.187Z,22.07
2023-01-24T10:42:33.483Z,22.08
2023-01-24T10:45:34.722Z,22.08
2023-01-24T10:48:56.451Z,22.04
2023-01-24T10:51:42.739Z,22.03
2023-01-24T10:54:28.943Z,21.95
2023-01-24T10:57:18.417Z,22.03
2023-01-24T11:00:19.662Z,22.04
2023-01-24T11:03:06.365Z,22.05
2023-01-24T11:05:52.977Z,22.06
2023-01-24T11:08:38.893Z,22.09
2023-01-24T11:11:30.035Z,22.09
2023-01-24T11:14:16.924Z,22.10
2023-01-24T11:17:03.381Z,22.13
2023-01-24T11:19:49.468Z,22.18
2023-01-24T11:22:37.104Z,22.05
2023-01-24T11:25:23.509Z,21.98
2023-01-24T11:28:23.180Z,21.98
2023-01-24T11:31:16.037Z,21.99
2023-01-24T11:34:02.514Z,21.99
2023-01-24T11:37:07.421Z,22.01
2023-01-24T11:39:56.808Z,22.05
2023-01-24T11:42:48.979Z,22.08
2023-01-24T11:45:35.311Z,22.12
2023-01-24T11:48:22.169Z,22.15
2023-01-24T11:51:14.438Z,22.18
2023-01-24T11:54:09.684Z,22.22
2023-01-24T11:56:58.542Z,22.18
2023-01-24T11:59:51.845Z,22.14
2023-01-24T12:02:41.230Z,22.17
2023-01-24T12:05:46.855Z,22.14
2023-01-24T12:08:48.105Z,22.12
2023-01-24T12:11:36.624Z,22.12
2023-01-24T12:14:41.034Z,22.12
2023-01-24T12:17:36.378Z,22.12
2023-01-24T12:20:31.253Z,22.10
2023-01-24T12:23:37.078Z,21.99
2023-01-24T12:26:24.643Z,21.89
2023-01-24T12:29:13.421Z,21.92
2023-01-24T12:32:04.740Z,21.93
2023-01-24T12:34:50.837Z,21.93
2023-01-24T12:37:42.712Z,21.96
2023-01-24T12:40:38.055Z,22.00
2023-01-24T12:43:32.087Z,22.04
2023-01-24T12:46:47.513Z,22.08
2023-01-24T12:49:46.929Z,22.10
2023-01-24T12:52:56.399Z,22.13
2023-01-24T12:55:42.456Z,22.13
2023-01-24T12:58:48.953Z,22.08
2023-01-24T13:01:41.927Z,21.77
2023-01-24T13:04:46.983Z,21.58
2023-01-24T13:07:43.242Z,21.48
2023-01-24T13:10:29.061Z,21.44
2023-01-24T13:13:20.982Z,21.60
2023-01-24T13:16:20.903Z,22.05
2023-01-24T13:19:19.542Z,22.00
2023-01-24T13:22:20.757Z,22.08
2023-01-24T13:25:06.953Z,22.16
2023-01-24T13:27:59.215Z,22.21
2023-01-24T13:31:04.272Z,22.21
2023-01-24T13:33:54.795Z,22.29
2023-01-24T13:36:40.661Z,22.32
2023-01-24T13:39:43.216Z,22.32
2023-01-24T13:42:47.623Z,22.29
2023-01-24T13:45:42.348Z,22.20
2023-01-24T13:48:40.698Z,22.11
2023-01-24T13:51:34.326Z,22.08
2023-01-24T13:54:32.864Z,22.09
2023-01-24T13:57:36.537Z,22.12
2023-01-24T14:00:22.475Z,22.13
2023-01-24T14:03:14.635Z,22.12
2023-01-24T14:06:00.705Z,22.36
2023-01-24T14:08:48.448Z,22.49
2023-01-24T14:11:36.546Z,22.45
2023-01-24T14:14:26.705Z,22.47
2023-01-24T14:17:26.485Z,22.62
2023-01-24T14:20:35.803Z,22.46
2023-01-24T14:23:22.900Z,22.32
2023-01-24T14:26:09.224Z,22.24
2023-01-24T14:28:56.395Z,22.20
2023-01-24T14:31:43.883Z,22.22
2023-01-24T14:34:32.420Z,22.22
2023-01-24T14:37:18.435Z,22.26
2023-01-24T14:40:31.127Z,22.27
2023-01-24T14:43:17.143Z,22.23
2023-01-24T14:46:10.713Z,22.44
2023-01-24T14:48:56.548Z,22.50
2023-01-24T14:51:46.668Z,22.52
2023-01-24T14:54:34.905Z,22.59
2023-01-24T14:57:23.960Z,22.42
2023-01-24T15:00:13.023Z,22.38
2023-01-24T15:03:00.169Z,22.33
2023-01-24T15:05:50.132Z,22.35
2023-01-24T15:08:36.441Z,22.19
2023-01-24T15:11:28.841Z,22.16
2023-01-24T15:14:18.912Z,22.10
2023-01-24T15:17:05.269Z,22.10
2023-01-24T15:19:53.502Z,22.07
2023-01-24T15:22:39.860Z,22.01
2023-01-24T15:25:28.824Z,22.05
2023-01-24T15:28:30.322Z,22.14
2023-01-24T15:31:20.494Z,22.21
2023-01-24T15:34:14.852Z,22.24
2023-01-24T15:37:01.210Z,22.26
2023-01-24T15:39:47.390Z,22.13
2023-01-24T15:42:52.075Z,22.07
2023-01-24T15:45:40.239Z,22.09
2023-01-24T15:48:26.463Z,22.11
2023-01-24T15:51:44.092Z,22.12
2023-01-24T15:54:30.126Z,22.03
2023-01-24T15:57:26.475Z,22.02
2023-01-24T16:00:12.637Z,21.97
2023-01-24T16:02:58.517Z,21.96
2023-01-24T16:05:44.586Z,21.97
2023-01-24T16:08:30.486Z,22.18
2023-01-24T16:11:16.770Z,22.28
2023-01-24T16:14:04.127Z,22.33
2023-01-24T16:16:52.456Z,22.35
2023-01-24T16:19:38.608Z,22.17
2023-01-24T16:22:24.995Z,22.18
2023-01-24T16:25:14.149Z,22.18
2023-01-24T16:28:00.288Z,22.20
2023-01-24T16:30:48.408Z,22.24
2023-01-24T16:33:34.569Z,22.28
2023-01-24T16:36:20.759Z,22.18
2023-01-24T16:39:07.367Z,22.14
2023-01-24T16:41:53.742Z,22.12
2023-01-24T16:44:39.621Z,22.20
2023-01-24T16:47:25.939Z,21.96
2023-01-24T16:50:12.234Z,22.17
2023-01-24T16:52:58.426Z,22.26
2023-01-24T16:55:44.617Z,22.22
2023-01-24T16:58:31.281Z,22.33
2023-01-24T17:01:17.630Z,22.37
2023-01-24T17:04:04.144Z,22.35
2023-01-24T17:06:50.213Z,22.44
2023-01-24T17:09:35.991Z,22.60
2023-01-24T17:12:22.233Z,23.46
2023-01-24T17:15:08.404Z,23.79
2023-01-24T17:17:54.396Z,23.21
2023-01-24T17:20:40.726Z,22.90
2023-01-24T17:23:26.577Z,22.89
2023-01-24T17:26:13.883Z,22.69
2023-01-24T17:29:00.227Z,22.57
2023-01-24T17:31:46.655Z,22.52
2023-01-24T17:34:33.237Z,22.49
2023-01-24T17:37:19.523Z,22.47
2023-01-24T17:40:06.391Z,22.48
2023-01-24T17:42:52.726Z,22.52
2023-01-24T17:45:38.912Z,22.55
2023-01-24T17:48:25.147Z,22.58
2023-01-24T17:51:12.141Z,22.57
2023-01-24T17:53:59.613Z,22.57
2023-01-24T17:56:45.492Z,22.62
2023-01-24T17:59:31.595Z,22.65
2023-01-24T18:02:17.876Z,22.60
2023-01-24T18:05:04.297Z,22.62
2023-01-24T18:07:50.491Z,22.62
2023-01-24T18:10:37.226Z,22.60
2023-01-24T18:13:23.379Z,22.46
2023-01-24T18:16:10.468Z,22.40
2023-01-24T18:18:56.817Z,22.37
2023-01-24T18:21:42.887Z,22.40
2023-01-24T18:24:29.121Z,22.40
2023-01-24T18:27:15.509Z,22.40
2023-01-24T18:30:01.877Z,22.41
2023-01-24T18:32:47.851Z,22.39
2023-01-24T18:35:34.009Z,22.44
2023-01-24T18:38:19.837Z,22.46
2023-01-24T18:41:06.160Z,22.31
2023-01-24T18:43:52.067Z,22.44
2023-01-24T18:46:38.497Z,22.48
2023-01-24T18:49:24.360Z,22.38
2023-01-24T18:52:10.479Z,22.46
2023-01-24T18:54:56.624Z,22.29
2023-01-24T18:57:42.714Z,22.32
2023-01-24T19:00:31.934Z,22.20
2023-01-24T19:03:17.843Z,22.22
2023-01-24T19:06:04.297Z,22.19
2023-01-24T19:09:02.126Z,22.24
2023-01-24T19:11:49.530Z,22.28
2023-01-24T19:14:35.614Z,22.33
2023-01-24T19:17:21.463Z,22.31
2023-01-24T19:20:08.121Z,22.41
2023-01-24T19:22:54.227Z,22.29
2023-01-24T19:25:40.669Z,22.36
2023-01-24T19:28:26.679Z,22.39
2023-01-24T19:31:12.667Z,22.39
2023-01-24T19:33:59.057Z,22.31
2023-01-24T19:36:45.234Z,22.29
2023-01-24T19:39:31.359Z,22.25
2023-01-24T19:42:17.580Z,22.35
2023-01-24T19:45:03.988Z,22.33
2023-01-24T19:47:51.639Z,22.37
2023-01-24T19:50:37.581Z,22.42
2023-01-24T19:53:23.379Z,22.42
2023-01-24T19:56:10.314Z,22.45
2023-01-24T19:58:56.819Z,22.32
2023-01-24T20:01:43.193Z,22.22
2023-01-24T20:04:33.099Z,22.22
2023-01-24T20:07:21.951Z,22.18
2023-01-24T20:10:08.475Z,22.18
2023-01-24T20:12:54.713Z,22.18
2023-01-24T20:15:41.025Z,22.23
2023-01-24T20:18:28.227Z,22.26
2023-01-24T20:21:14.507Z,22.23
2023-01-24T20:24:01.418Z,22.20
2023-01-24T20:26:49.698Z,22.19
2023-01-24T20:29:35.456Z,22.26
2023-01-24T20:32:30.762Z,22.29
2023-01-24T20:35:21.237Z,22.24
2023-01-24T20:38:07.549Z,22.19
2023-01-24T20:40:57.624Z,22.18
2023-01-24T20:43:44.173Z,22.27
2023-01-24T20:46:30.478Z,22.37
2023-01-24T20:49:16.777Z,22.42
2023-01-24T20:52:02.572Z,22.32
2023-01-24T20:54:48.773Z,22.31
2023-01-24T20:57:34.960Z,22.59
2023-01-24T21:00:20.881Z,22.52
2023-01-24T21:03:07.301Z,22.48
2023-01-24T21:05:53.504Z,22.47
2023-01-24T21:08:39.417Z,22.47
2023-01-24T21:11:26.206Z,22.44
2023-01-24T21:14:12.393Z,22.41
2023-01-24T21:16:58.479Z,22.40
2023-01-24T21:19:44.814Z,22.39
2023-01-24T21:22:30.795Z,22.34
2023-01-24T21:25:17.143Z,22.33
2023-01-24T21:28:03.392Z,22.33
2023-01-24T21:30:58.308Z,22.34
2023-01-24T21:33:44.479Z,22.34
2023-01-24T21:36:33.332Z,22.30
2023-01-24T21:39:19.730Z,22.31
2023-01-24T21:42:05.822Z,22.28
2023-01-24T21:44:51.804Z,22.29
2023-01-24T21:47:37.893Z,22.26
2023-01-24T21:50:23.913Z,22.28
2023-01-24T21:53:30.100Z,22.30
2023-01-24T21:56:34.672Z,22.28
2023-01-24T21:59:21.268Z,22.21
2023-01-24T22:02:12.664Z,21.95
2023-01-24T22:04:59.105Z,21.76
2023-01-24T22:07:45.097Z,21.70
2023-01-24T22:10:31.437Z,21.77
2023-01-24T22:13:17.653Z,21.80
2023-01-24T22:16:03.979Z,21.86
2023-01-24T22:18:49.911Z,21.88
2023-01-24T22:21:39.025Z,21.88
2023-01-24T22:24:28.398Z,21.89
2023-01-24T22:27:15.599Z,21.92
2023-01-24T22:30:01.923Z,21.96
2023-01-24T22:32:48.096Z,22.05
2023-01-24T22:35:34.625Z,22.11
2023-01-24T22:38:26.627Z,22.22
2023-01-24T22:41:12.547Z,22.30
2023-01-24T22:43:58.141Z,22.36
2023-01-24T22:46:44.009Z,22.41
2023-01-24T22:49:30.034Z,22.35
2023-01-24T22:52:16.303Z,21.94
2023-01-24T22:55:02.891Z,21.71
2023-01-24T22:57:49.132Z,21.86
2023-01-24T23:00:35.256Z,21.89
2023-01-24T23:03:21.508Z,21.94
2023-01-24T23:06:08.423Z,21.97
2023-01-24T23:08:54.732Z,21.97
2023-01-24T23:11:40.558Z,22.02
2023-01-24T23:15:05.530Z,22.08
2023-01-24T23:17:52.132Z,22.12
2023-01-24T23:20:56.530Z,22.13
2023-01-24T23:23:42.670Z,22.14
2023-01-24T23:26:29.222Z,22.12
2023-01-24T23:29:15.192Z,22.12
2023-01-24T23:32:02.115Z,21.99
2023-01-24T23:34:54.713Z,21.71
2023-01-24T23:37:40.695Z,21.52
2023-01-24T23:40:26.916Z,21.69
2023-01-24T23:43:13.233Z,21.81
2023-01-24T23:45:59.503Z,21.97
2023-01-24T23:48:45.772Z,22.14
2023-01-24T23:51:31.871Z,22.21
2023-01-24T23:54:18.096Z,22.25
2023-01-24T23:57:04.496Z,22.31
2023-01-24T23:59:50.215Z,22.33
